Terminal Aerodrome Forecast
Issued by NWS

Home | Current Version | Previous Version | Text Only | Print | Product List | Glossary On
Versions: 1 2 3 4 5 6 7 8 9 10 11 12 13 14 15 16 17 18 19 20 21 22 23 24 25 26 27 28 29
000
FTUS41 KBUF 221700
TAFIAG
TAF
KIAG 221737Z 2218/2318 30009KT P6SM SCT025 OVC035
     FM222300 28009KT P6SM BKN150
     FM230000 28008KT P6SM BKN250
     FM230600 23005KT P6SM BKN080
     FM231300 23008KT P6SM SCT080=

USA.gov is the U.S. government's official web portal to all federal, state and local government web resources and services.